sensor_id;sensor_type;location;lat;lon;timestamp;temperature;humidity
67942;SHT31;54731;42.600;23.476;2022-10-28T00:00:50;11.58;64.88
67942;SHT31;54731;42.600;23.476;2022-10-28T00:03:17;11.57;65.02
67942;SHT31;54731;42.600;23.476;2022-10-28T00:05:44;11.59;64.95
67942;SHT31;54731;42.600;23.476;2022-10-28T00:08:09;11.59;64.99
67942;SHT31;54731;42.600;23.476;2022-10-28T00:10:35;11.58;65.11
67942;SHT31;54731;42.600;23.476;2022-10-28T00:13:00;11.57;65.15
67942;SHT31;54731;42.600;23.476;2022-10-28T00:15:26;11.52;65.27
67942;SHT31;54731;42.600;23.476;2022-10-28T00:17:52;11.58;65.08
67942;SHT31;54731;42.600;23.476;2022-10-28T00:20:17;11.58;65.04
67942;SHT31;54731;42.600;23.476;2022-10-28T00:22:42;11.51;65.29
67942;SHT31;54731;42.600;23.476;2022-10-28T00:25:08;11.51;65.25
67942;SHT31;54731;42.600;23.476;2022-10-28T00:27:33;11.52;65.21
67942;SHT31;54731;42.600;23.476;2022-10-28T00:29:59;11.51;65.11
67942;SHT31;54731;42.600;23.476;2022-10-28T00:32:28;11.48;65.18
67942;SHT31;54731;42.600;23.476;2022-10-28T00:34:53;11.46;65.37
67942;SHT31;54731;42.600;23.476;2022-10-28T00:37:18;11.45;65.37
67942;SHT31;54731;42.600;23.476;2022-10-28T00:39:44;11.40;65.63
67942;SHT31;54731;42.600;23.476;2022-10-28T00:42:09;11.31;65.86
67942;SHT31;54731;42.600;23.476;2022-10-28T00:47:04;11.25;66.13
67942;SHT31;54731;42.600;23.476;2022-10-28T00:49:32;11.21;66.34
67942;SHT31;54731;42.600;23.476;2022-10-28T00:52:02;11.17;66.49
67942;SHT31;54731;42.600;23.476;2022-10-28T00:54:29;11.18;66.52
67942;SHT31;54731;42.600;23.476;2022-10-28T00:56:57;11.17;66.58
67942;SHT31;54731;42.600;23.476;2022-10-28T00:59:31;11.15;66.63
67942;SHT31;54731;42.600;23.476;2022-10-28T01:01:58;11.17;66.52
67942;SHT31;54731;42.600;23.476;2022-10-28T01:04:24;11.18;66.50
67942;SHT31;54731;42.600;23.476;2022-10-28T01:06:49;11.12;66.58
67942;SHT31;54731;42.600;23.476;2022-10-28T01:09:15;11.10;66.73
67942;SHT31;54731;42.600;23.476;2022-10-28T01:11:52;11.08;66.71
67942;SHT31;54731;42.600;23.476;2022-10-28T01:14:40;11.07;66.75
67942;SHT31;54731;42.600;23.476;2022-10-28T01:17:26;11.07;66.72
67942;SHT31;54731;42.600;23.476;2022-10-28T01:28:28;11.00;66.71
67942;SHT31;54731;42.600;23.476;2022-10-28T01:42:39;10.81;67.43
67942;SHT31;54731;42.600;23.476;2022-10-28T01:53:06;10.66;67.79
67942;SHT31;54731;42.600;23.476;2022-10-28T01:55:37;10.64;68.45
67942;SHT31;54731;42.600;23.476;2022-10-28T01:58:04;10.61;68.34
67942;SHT31;54731;42.600;23.476;2022-10-28T02:00:32;10.59;67.95
67942;SHT31;54731;42.600;23.476;2022-10-28T02:02:57;10.53;67.89
67942;SHT31;54731;42.600;23.476;2022-10-28T02:10:43;10.34;69.04
67942;SHT31;54731;42.600;23.476;2022-10-28T02:13:12;10.29;68.85
67942;SHT31;54731;42.600;23.476;2022-10-28T02:24:09;10.16;69.21
67942;SHT31;54731;42.600;23.476;2022-10-28T02:26:39;10.22;69.06
67942;SHT31;54731;42.600;23.476;2022-10-28T02:29:27;10.22;68.96
67942;SHT31;54731;42.600;23.476;2022-10-28T02:32:20;10.23;68.93
67942;SHT31;54731;42.600;23.476;2022-10-28T02:34:50;10.28;68.95
67942;SHT31;54731;42.600;23.476;2022-10-28T02:37:28;10.34;68.89
67942;SHT31;54731;42.600;23.476;2022-10-28T02:40:01;10.34;68.91
67942;SHT31;54731;42.600;23.476;2022-10-28T02:42:32;10.36;68.50
67942;SHT31;54731;42.600;23.476;2022-10-28T02:45:06;10.36;68.46
67942;SHT31;54731;42.600;23.476;2022-10-28T02:47:36;10.26;68.95
67942;SHT31;54731;42.600;23.476;2022-10-28T02:50:07;10.24;68.95
67942;SHT31;54731;42.600;23.476;2022-10-28T02:52:34;10.22;69.17
67942;SHT31;54731;42.600;23.476;2022-10-28T02:55:03;10.23;69.08
67942;SHT31;54731;42.600;23.476;2022-10-28T02:57:34;10.19;69.12
67942;SHT31;54731;42.600;23.476;2022-10-28T03:00:07;10.23;68.87
67942;SHT31;54731;42.600;23.476;2022-10-28T03:02:33;10.20;69.14
67942;SHT31;54731;42.600;23.476;2022-10-28T03:04:58;10.24;69.09
67942;SHT31;54731;42.600;23.476;2022-10-28T03:07:24;10.17;69.55
67942;SHT31;54731;42.600;23.476;2022-10-28T03:09:49;10.17;69.69
67942;SHT31;54731;42.600;23.476;2022-10-28T03:12:15;10.28;69.40
67942;SHT31;54731;42.600;23.476;2022-10-28T03:14:40;10.20;69.52
67942;SHT31;54731;42.600;23.476;2022-10-28T03:17:05;10.19;69.58
67942;SHT31;54731;42.600;23.476;2022-10-28T03:19:30;10.17;69.74
67942;SHT31;54731;42.600;23.476;2022-10-28T03:21:56;10.13;69.75
67942;SHT31;54731;42.600;23.476;2022-10-28T03:24:21;10.12;69.86
67942;SHT31;54731;42.600;23.476;2022-10-28T03:26:46;10.09;69.81
67942;SHT31;54731;42.600;23.476;2022-10-28T03:29:12;10.10;70.03
67942;SHT31;54731;42.600;23.476;2022-10-28T03:31:37;10.05;70.02
67942;SHT31;54731;42.600;23.476;2022-10-28T03:34:02;9.99;70.20
67942;SHT31;54731;42.600;23.476;2022-10-28T03:36:28;9.95;70.29
67942;SHT31;54731;42.600;23.476;2022-10-28T03:38:53;9.93;70.38
67942;SHT31;54731;42.600;23.476;2022-10-28T03:41:18;9.92;70.64
67942;SHT31;54731;42.600;23.476;2022-10-28T03:43:44;9.78;70.94
67942;SHT31;54731;42.600;23.476;2022-10-28T03:46:09;9.68;71.27
67942;SHT31;54731;42.600;23.476;2022-10-28T03:48:34;9.68;71.41
67942;SHT31;54731;42.600;23.476;2022-10-28T03:51:00;9.67;71.43
67942;SHT31;54731;42.600;23.476;2022-10-28T03:53:25;9.61;71.48
67942;SHT31;54731;42.600;23.476;2022-10-28T03:56:00;9.59;71.42
67942;SHT31;54731;42.600;23.476;2022-10-28T03:58:26;9.57;71.12
67942;SHT31;54731;42.600;23.476;2022-10-28T04:00:52;9.55;71.19
67942;SHT31;54731;42.600;23.476;2022-10-28T04:03:19;9.54;71.00
67942;SHT31;54731;42.600;23.476;2022-10-28T04:05:45;9.51;71.16
67942;SHT31;54731;42.600;23.476;2022-10-28T04:08:11;9.47;71.54
67942;SHT31;54731;42.600;23.476;2022-10-28T04:10:36;9.38;72.39
67942;SHT31;54731;42.600;23.476;2022-10-28T04:13:03;9.42;72.52
67942;SHT31;54731;42.600;23.476;2022-10-28T04:15:29;9.38;72.46
67942;SHT31;54731;42.600;23.476;2022-10-28T04:17:55;9.37;72.54
67942;SHT31;54731;42.600;23.476;2022-10-28T04:20:20;9.39;72.59
67942;SHT31;54731;42.600;23.476;2022-10-28T04:22:45;9.38;72.52
67942;SHT31;54731;42.600;23.476;2022-10-28T04:25:11;9.32;72.63
67942;SHT31;54731;42.600;23.476;2022-10-28T04:27:36;9.34;72.82
67942;SHT31;54731;42.600;23.476;2022-10-28T04:30:02;9.31;72.80
67942;SHT31;54731;42.600;23.476;2022-10-28T04:32:28;9.28;72.88
67942;SHT31;54731;42.600;23.476;2022-10-28T04:34:53;9.31;73.12
67942;SHT31;54731;42.600;23.476;2022-10-28T04:37:18;9.37;72.95
67942;SHT31;54731;42.600;23.476;2022-10-28T04:39:43;9.39;72.70
67942;SHT31;54731;42.600;23.476;2022-10-28T04:42:09;9.35;72.93
67942;SHT31;54731;42.600;23.476;2022-10-28T04:44:34;9.32;72.83
67942;SHT31;54731;42.600;23.476;2022-10-28T04:46:59;9.30;72.85
67942;SHT31;54731;42.600;23.476;2022-10-28T04:49:25;9.28;72.93
67942;SHT31;54731;42.600;23.476;2022-10-28T04:51:50;9.26;72.97
67942;SHT31;54731;42.600;23.476;2022-10-28T04:54:15;9.27;73.38
67942;SHT31;54731;42.600;23.476;2022-10-28T04:56:41;9.28;73.36
67942;SHT31;54731;42.600;23.476;2022-10-28T04:59:06;9.28;73.27
67942;SHT31;54731;42.600;23.476;2022-10-28T05:01:31;9.27;73.39
67942;SHT31;54731;42.600;23.476;2022-10-28T05:03:57;9.28;73.18
67942;SHT31;54731;42.600;23.476;2022-10-28T05:06:22;9.17;73.43
67942;SHT31;54731;42.600;23.476;2022-10-28T05:08:47;9.18;73.49
67942;SHT31;54731;42.600;23.476;2022-10-28T05:11:13;9.16;73.33
67942;SHT31;54731;42.600;23.476;2022-10-28T05:13:38;9.13;73.40
67942;SHT31;54731;42.600;23.476;2022-10-28T05:16:04;9.17;73.30
67942;SHT31;54731;42.600;23.476;2022-10-28T05:18:29;9.11;73.61
67942;SHT31;54731;42.600;23.476;2022-10-28T05:20:54;9.06;73.74
67942;SHT31;54731;42.600;23.476;2022-10-28T05:23:21;9.04;74.00
67942;SHT31;54731;42.600;23.476;2022-10-28T05:25:46;9.03;73.95
67942;SHT31;54731;42.600;23.476;2022-10-28T05:28:11;9.03;74.32
67942;SHT31;54731;42.600;23.476;2022-10-28T05:30:37;9.01;74.79
67942;SHT31;54731;42.600;23.476;2022-10-28T05:33:02;8.97;74.33
67942;SHT31;54731;42.600;23.476;2022-10-28T05:35:29;8.90;74.84
67942;SHT31;54731;42.600;23.476;2022-10-28T05:37:54;8.86;74.76
67942;SHT31;54731;42.600;23.476;2022-10-28T05:40:20;8.90;74.61
67942;SHT31;54731;42.600;23.476;2022-10-28T05:42:45;8.93;74.85
67942;SHT31;54731;42.600;23.476;2022-10-28T05:45:10;8.87;74.78
67942;SHT31;54731;42.600;23.476;2022-10-28T05:47:41;8.84;75.18
67942;SHT31;54731;42.600;23.476;2022-10-28T05:50:06;8.91;75.00
67942;SHT31;54731;42.600;23.476;2022-10-28T05:52:32;8.91;74.75
67942;SHT31;54731;42.600;23.476;2022-10-28T05:54:57;8.91;74.93
67942;SHT31;54731;42.600;23.476;2022-10-28T05:57:22;8.94;75.20
67942;SHT31;54731;42.600;23.476;2022-10-28T05:59:48;8.94;75.36
67942;SHT31;54731;42.600;23.476;2022-10-28T06:02:13;8.97;75.23
67942;SHT31;54731;42.600;23.476;2022-10-28T06:04:40;9.04;75.27
67942;SHT31;54731;42.600;23.476;2022-10-28T06:07:05;9.03;75.14
67942;SHT31;54731;42.600;23.476;2022-10-28T06:09:31;9.06;75.47
67942;SHT31;54731;42.600;23.476;2022-10-28T06:11:56;9.08;75.46
67942;SHT31;54731;42.600;23.476;2022-10-28T06:14:21;8.97;75.63
67942;SHT31;54731;42.600;23.476;2022-10-28T06:16:47;9.01;75.80
67942;SHT31;54731;42.600;23.476;2022-10-28T06:19:12;9.06;75.84
67942;SHT31;54731;42.600;23.476;2022-10-28T06:21:37;9.07;75.39
67942;SHT31;54731;42.600;23.476;2022-10-28T06:24:03;9.10;75.27
67942;SHT31;54731;42.600;23.476;2022-10-28T06:26:28;9.14;75.14
67942;SHT31;54731;42.600;23.476;2022-10-28T06:28:53;9.13;75.13
67942;SHT31;54731;42.600;23.476;2022-10-28T06:31:18;9.13;75.80
67942;SHT31;54731;42.600;23.476;2022-10-28T06:33:44;9.18;76.09
67942;SHT31;54731;42.600;23.476;2022-10-28T06:36:09;9.16;75.98
67942;SHT31;54731;42.600;23.476;2022-10-28T06:38:34;9.14;75.93
67942;SHT31;54731;42.600;23.476;2022-10-28T06:41:00;9.17;75.45
67942;SHT31;54731;42.600;23.476;2022-10-28T06:43:25;9.17;75.31
67942;SHT31;54731;42.600;23.476;2022-10-28T06:45:50;9.16;75.26
67942;SHT31;54731;42.600;23.476;2022-10-28T06:48:16;9.17;75.10
67942;SHT31;54731;42.600;23.476;2022-10-28T06:50:41;9.14;75.19
67942;SHT31;54731;42.600;23.476;2022-10-28T06:53:07;9.17;75.13
67942;SHT31;54731;42.600;23.476;2022-10-28T06:55:33;9.23;75.07
67942;SHT31;54731;42.600;23.476;2022-10-28T06:57:59;9.26;74.96
67942;SHT31;54731;42.600;23.476;2022-10-28T07:00:26;9.30;74.95
67942;SHT31;54731;42.600;23.476;2022-10-28T07:02:52;9.34;74.69
67942;SHT31;54731;42.600;23.476;2022-10-28T07:05:18;9.34;75.04
67942;SHT31;54731;42.600;23.476;2022-10-28T07:07:43;9.31;74.45
67942;SHT31;54731;42.600;23.476;2022-10-28T07:10:08;9.31;74.63
67942;SHT31;54731;42.600;23.476;2022-10-28T07:12:34;9.38;74.49
67942;SHT31;54731;42.600;23.476;2022-10-28T07:14:59;9.41;74.59
67942;SHT31;54731;42.600;23.476;2022-10-28T07:17:25;9.45;74.47
67942;SHT31;54731;42.600;23.476;2022-10-28T07:19:50;9.49;74.79
67942;SHT31;54731;42.600;23.476;2022-10-28T07:22:16;9.57;74.70
67942;SHT31;54731;42.600;23.476;2022-10-28T07:24:41;9.59;74.71
67942;SHT31;54731;42.600;23.476;2022-10-28T07:27:07;9.65;74.74
67942;SHT31;54731;42.600;23.476;2022-10-28T07:29:32;9.74;74.66
67942;SHT31;54731;42.600;23.476;2022-10-28T07:31:58;9.77;73.89
67942;SHT31;54731;42.600;23.476;2022-10-28T07:34:23;9.82;73.50
67942;SHT31;54731;42.600;23.476;2022-10-28T07:36:49;9.85;73.64
67942;SHT31;54731;42.600;23.476;2022-10-28T07:39:15;9.89;73.61
67942;SHT31;54731;42.600;23.476;2022-10-28T07:41:41;9.93;73.25
67942;SHT31;54731;42.600;23.476;2022-10-28T07:44:06;9.95;73.38
67942;SHT31;54731;42.600;23.476;2022-10-28T07:46:32;10.03;73.26
67942;SHT31;54731;42.600;23.476;2022-10-28T07:48:57;10.10;73.12
67942;SHT31;54731;42.600;23.476;2022-10-28T07:51:22;10.16;73.14
67942;SHT31;54731;42.600;23.476;2022-10-28T07:53:48;10.20;72.82
67942;SHT31;54731;42.600;23.476;2022-10-28T07:56:13;10.30;72.60
67942;SHT31;54731;42.600;23.476;2022-10-28T07:58:40;10.34;72.64
67942;SHT31;54731;42.600;23.476;2022-10-28T08:01:06;10.39;72.39
67942;SHT31;54731;42.600;23.476;2022-10-28T08:03:33;10.43;72.28
67942;SHT31;54731;42.600;23.476;2022-10-28T08:06:08;10.50;72.29
67942;SHT31;54731;42.600;23.476;2022-10-28T08:08:34;10.60;72.38
67942;SHT31;54731;42.600;23.476;2022-10-28T08:11:14;10.73;71.72
67942;SHT31;54731;42.600;23.476;2022-10-28T08:13:40;10.77;71.50
67942;SHT31;54731;42.600;23.476;2022-10-28T08:16:05;10.75;71.28
67942;SHT31;54731;42.600;23.476;2022-10-28T08:18:31;10.83;71.21
67942;SHT31;54731;42.600;23.476;2022-10-28T08:21:00;10.91;70.76
67942;SHT31;54731;42.600;23.476;2022-10-28T08:23:26;10.94;70.70
67942;SHT31;54731;42.600;23.476;2022-10-28T08:25:52;10.98;70.36
67942;SHT31;54731;42.600;23.476;2022-10-28T08:28:17;11.01;70.26
67942;SHT31;54731;42.600;23.476;2022-10-28T08:30:44;11.08;70.29
67942;SHT31;54731;42.600;23.476;2022-10-28T08:33:09;11.15;70.20
67942;SHT31;54731;42.600;23.476;2022-10-28T08:35:35;11.22;70.16
67942;SHT31;54731;42.600;23.476;2022-10-28T08:38:01;11.34;69.63
67942;SHT31;54731;42.600;23.476;2022-10-28T08:40:42;11.39;69.18
67942;SHT31;54731;42.600;23.476;2022-10-28T08:45:55;11.57;68.68
67942;SHT31;54731;42.600;23.476;2022-10-28T08:48:29;11.65;68.36
67942;SHT31;54731;42.600;23.476;2022-10-28T08:53:41;11.68;68.90
67942;SHT31;54731;42.600;23.476;2022-10-28T08:56:38;11.66;68.99
67942;SHT31;54731;42.600;23.476;2022-10-28T08:59:06;11.69;68.34
67942;SHT31;54731;42.600;23.476;2022-10-28T09:01:46;11.75;68.25
67942;SHT31;54731;42.600;23.476;2022-10-28T09:06:43;12.04;67.01
67942;SHT31;54731;42.600;23.476;2022-10-28T09:09:17;12.13;67.25
67942;SHT31;54731;42.600;23.476;2022-10-28T09:17:38;12.33;66.78
67942;SHT31;54731;42.600;23.476;2022-10-28T09:20:18;12.44;66.48
67942;SHT31;54731;42.600;23.476;2022-10-28T09:36:19;13.20;64.87
67942;SHT31;54731;42.600;23.476;2022-10-28T09:38:45;13.28;64.72
67942;SHT31;54731;42.600;23.476;2022-10-28T09:41:22;13.40;64.05
67942;SHT31;54731;42.600;23.476;2022-10-28T09:43:52;13.53;63.69
67942;SHT31;54731;42.600;23.476;2022-10-28T09:46:20;13.65;63.11
67942;SHT31;54731;42.600;23.476;2022-10-28T09:48:51;13.77;63.15
67942;SHT31;54731;42.600;23.476;2022-10-28T09:54:07;13.97;62.33
67942;SHT31;54731;42.600;23.476;2022-10-28T09:56:32;14.03;62.35
67942;SHT31;54731;42.600;23.476;2022-10-28T09:58:59;14.03;62.13
67942;SHT31;54731;42.600;23.476;2022-10-28T10:01:26;14.14;62.14
67942;SHT31;54731;42.600;23.476;2022-10-28T10:03:53;14.31;61.94
67942;SHT31;54731;42.600;23.476;2022-10-28T10:06:37;14.44;61.70
67942;SHT31;54731;42.600;23.476;2022-10-28T10:09:03;14.67;61.19
67942;SHT31;54731;42.600;23.476;2022-10-28T10:11:42;14.84;60.45
67942;SHT31;54731;42.600;23.476;2022-10-28T10:14:14;14.93;60.10
67942;SHT31;54731;42.600;23.476;2022-10-28T10:16:55;15.03;59.48
67942;SHT31;54731;42.600;23.476;2022-10-28T10:19:21;15.18;58.49
67942;SHT31;54731;42.600;23.476;2022-10-28T10:21:53;15.19;58.21
67942;SHT31;54731;42.600;23.476;2022-10-28T10:26:53;15.50;57.54
67942;SHT31;54731;42.600;23.476;2022-10-28T10:29:20;15.56;57.86
67942;SHT31;54731;42.600;23.476;2022-10-28T10:31:46;15.73;58.05
67942;SHT31;54731;42.600;23.476;2022-10-28T10:34:25;15.84;57.40
67942;SHT31;54731;42.600;23.476;2022-10-28T10:36:53;16.02;56.62
67942;SHT31;54731;42.600;23.476;2022-10-28T10:39:22;16.12;55.57
67942;SHT31;54731;42.600;23.476;2022-10-28T10:41:49;16.21;54.76
67942;SHT31;54731;42.600;23.476;2022-10-28T10:44:28;16.35;54.38
67942;SHT31;54731;42.600;23.476;2022-10-28T10:49:26;16.61;54.28
67942;SHT31;54731;42.600;23.476;2022-10-28T10:51:54;16.71;53.66
67942;SHT31;54731;42.600;23.476;2022-10-28T10:54:20;16.87;53.13
67942;SHT31;54731;42.600;23.476;2022-10-28T10:56:46;17.05;52.13
67942;SHT31;54731;42.600;23.476;2022-10-28T10:59:30;17.15;52.60
67942;SHT31;54731;42.600;23.476;2022-10-28T11:01:57;17.33;53.30
67942;SHT31;54731;42.600;23.476;2022-10-28T11:04:25;17.53;53.04
67942;SHT31;54731;42.600;23.476;2022-10-28T11:06:55;17.71;51.16
67942;SHT31;54731;42.600;23.476;2022-10-28T11:09:33;17.84;51.16
67942;SHT31;54731;42.600;23.476;2022-10-28T11:11:59;18.04;49.28
67942;SHT31;54731;42.600;23.476;2022-10-28T11:14:29;18.08;48.55
67942;SHT31;54731;42.600;23.476;2022-10-28T11:17:01;18.26;48.82
67942;SHT31;54731;42.600;23.476;2022-10-28T11:19:34;18.31;47.99
67942;SHT31;54731;42.600;23.476;2022-10-28T11:29:58;19.23;46.37
67942;SHT31;54731;42.600;23.476;2022-10-28T11:32:40;19.46;45.35
67942;SHT31;54731;42.600;23.476;2022-10-28T11:38:11;19.95;44.28
67942;SHT31;54731;42.600;23.476;2022-10-28T11:43:52;20.40;43.05
67942;SHT31;54731;42.600;23.476;2022-10-28T11:52:31;21.14;41.67
67942;SHT31;54731;42.600;23.476;2022-10-28T11:58:22;21.61;39.97
67942;SHT31;54731;42.600;23.476;2022-10-28T12:09:39;22.81;36.20
67942;SHT31;54731;42.600;23.476;2022-10-28T12:12:16;22.95;36.09
67942;SHT31;54731;42.600;23.476;2022-10-28T12:14:54;23.08;37.06
67942;SHT31;54731;42.600;23.476;2022-10-28T12:19:55;23.22;36.20
67942;SHT31;54731;42.600;23.476;2022-10-28T12:22:31;23.46;36.36
67942;SHT31;54731;42.600;23.476;2022-10-28T12:25:02;23.80;36.36
67942;SHT31;54731;42.600;23.476;2022-10-28T12:27:37;24.13;34.90
67942;SHT31;54731;42.600;23.476;2022-10-28T12:32:40;24.39;33.99
67942;SHT31;54731;42.600;23.476;2022-10-28T12:35:17;24.16;33.75
67942;SHT31;54731;42.600;23.476;2022-10-28T12:38:02;24.31;33.86
67942;SHT31;54731;42.600;23.476;2022-10-28T12:40:36;24.39;33.30
67942;SHT31;54731;42.600;23.476;2022-10-28T12:43:13;24.31;32.75
67942;SHT31;54731;42.600;23.476;2022-10-28T12:45:40;24.12;33.42
67942;SHT31;54731;42.600;23.476;2022-10-28T12:48:16;24.19;33.50
67942;SHT31;54731;42.600;23.476;2022-10-28T12:50:51;24.30;32.71
67942;SHT31;54731;42.600;23.476;2022-10-28T12:53:19;24.29;32.35
67942;SHT31;54731;42.600;23.476;2022-10-28T12:55:50;24.19;32.51
67942;SHT31;54731;42.600;23.476;2022-10-28T12:58:26;24.27;32.78
67942;SHT31;54731;42.600;23.476;2022-10-28T13:00:57;24.47;33.16
67942;SHT31;54731;42.600;23.476;2022-10-28T13:03:27;24.67;33.01
67942;SHT31;54731;42.600;23.476;2022-10-28T13:20:21;24.43;33.94
67942;SHT31;54731;42.600;23.476;2022-10-28T13:23:09;24.54;33.95
67942;SHT31;54731;42.600;23.476;2022-10-28T13:25:56;24.65;32.85
67942;SHT31;54731;42.600;23.476;2022-10-28T13:28:28;24.59;32.54
67942;SHT31;54731;42.600;23.476;2022-10-28T13:30:59;24.60;33.24
67942;SHT31;54731;42.600;23.476;2022-10-28T13:33:27;24.20;33.09
67942;SHT31;54731;42.600;23.476;2022-10-28T13:39:02;23.66;34.38
67942;SHT31;54731;42.600;23.476;2022-10-28T13:41:36;23.79;33.52
67942;SHT31;54731;42.600;23.476;2022-10-28T13:49:34;23.73;34.15
67942;SHT31;54731;42.600;23.476;2022-10-28T13:59:57;22.43;34.61
67942;SHT31;54731;42.600;23.476;2022-10-28T14:05:15;22.23;34.79
67942;SHT31;54731;42.600;23.476;2022-10-28T14:07:54;22.17;34.89
67942;SHT31;54731;42.600;23.476;2022-10-28T14:10:24;22.08;34.99
67942;SHT31;54731;42.600;23.476;2022-10-28T14:12:56;21.93;35.22
67942;SHT31;54731;42.600;23.476;2022-10-28T14:15:48;21.79;35.19
67942;SHT31;54731;42.600;23.476;2022-10-28T14:18:33;21.38;35.86
67942;SHT31;54731;42.600;23.476;2022-10-28T14:20:58;21.11;36.25
67942;SHT31;54731;42.600;23.476;2022-10-28T14:49:30;18.64;41.05
67942;SHT31;54731;42.600;23.476;2022-10-28T14:51:57;18.38;41.82
67942;SHT31;54731;42.600;23.476;2022-10-28T14:54:37;18.15;42.19
67942;SHT31;54731;42.600;23.476;2022-10-28T14:57:07;18.11;42.31
67942;SHT31;54731;42.600;23.476;2022-10-28T14:59:38;17.85;42.87
67942;SHT31;54731;42.600;23.476;2022-10-28T15:02:19;17.77;43.11
67942;SHT31;54731;42.600;23.476;2022-10-28T15:04:55;17.53;43.53
67942;SHT31;54731;42.600;23.476;2022-10-28T15:07:22;17.41;43.83
67942;SHT31;54731;42.600;23.476;2022-10-28T15:09:48;17.27;44.05
67942;SHT31;54731;42.600;23.476;2022-10-28T15:12:15;17.19;44.22
67942;SHT31;54731;42.600;23.476;2022-10-28T15:14:48;17.07;44.59
67942;SHT31;54731;42.600;23.476;2022-10-28T15:17:28;16.93;44.85
67942;SHT31;54731;42.600;23.476;2022-10-28T15:19:56;16.80;45.37
67942;SHT31;54731;42.600;23.476;2022-10-28T15:22:26;16.72;45.54
67942;SHT31;54731;42.600;23.476;2022-10-28T15:25:09;16.58;45.82
67942;SHT31;54731;42.600;23.476;2022-10-28T15:27:39;16.53;45.96
67942;SHT31;54731;42.600;23.476;2022-10-28T15:30:19;16.41;46.29
67942;SHT31;54731;42.600;23.476;2022-10-28T15:32:45;16.40;46.25
67942;SHT31;54731;42.600;23.476;2022-10-28T15:35:34;16.34;46.51
67942;SHT31;54731;42.600;23.476;2022-10-28T15:38:01;16.20;47.07
67942;SHT31;54731;42.600;23.476;2022-10-28T15:40:31;15.94;47.59
67942;SHT31;54731;42.600;23.476;2022-10-28T15:45:27;15.93;47.58
67942;SHT31;54731;42.600;23.476;2022-10-28T15:47:53;15.79;47.90
67942;SHT31;54731;42.600;23.476;2022-10-28T15:50:25;15.74;48.21
67942;SHT31;54731;42.600;23.476;2022-10-28T15:52:52;15.59;48.61
67942;SHT31;54731;42.600;23.476;2022-10-28T15:57:48;15.37;49.73
67942;SHT31;54731;42.600;23.476;2022-10-28T16:03:04;15.37;49.08
67942;SHT31;54731;42.600;23.476;2022-10-28T16:07:59;15.29;48.80
67942;SHT31;54731;42.600;23.476;2022-10-28T16:10:27;15.25;48.97
67942;SHT31;54731;42.600;23.476;2022-10-28T16:12:54;15.23;48.63
67942;SHT31;54731;42.600;23.476;2022-10-28T16:15:20;15.16;49.10
67942;SHT31;54731;42.600;23.476;2022-10-28T16:17:45;15.06;49.30
67942;SHT31;54731;42.600;23.476;2022-10-28T16:20:19;14.99;49.07
67942;SHT31;54731;42.600;23.476;2022-10-28T16:22:45;14.88;49.10
67942;SHT31;54731;42.600;23.476;2022-10-28T16:25:13;14.91;48.39
67942;SHT31;54731;42.600;23.476;2022-10-28T16:27:39;14.81;48.80
67942;SHT31;54731;42.600;23.476;2022-10-28T16:30:05;14.76;48.62
67942;SHT31;54731;42.600;23.476;2022-10-28T16:32:35;14.72;48.94
67942;SHT31;54731;42.600;23.476;2022-10-28T16:35:01;14.64;48.99
67942;SHT31;54731;42.600;23.476;2022-10-28T16:37:29;14.61;49.38
67942;SHT31;54731;42.600;23.476;2022-10-28T16:39:55;14.52;49.51
67942;SHT31;54731;42.600;23.476;2022-10-28T16:42:21;14.48;49.33
67942;SHT31;54731;42.600;23.476;2022-10-28T16:44:47;14.49;49.67
67942;SHT31;54731;42.600;23.476;2022-10-28T16:47:14;14.44;49.78
67942;SHT31;54731;42.600;23.476;2022-10-28T16:49:40;14.31;50.59
67942;SHT31;54731;42.600;23.476;2022-10-28T16:52:17;14.27;50.31
67942;SHT31;54731;42.600;23.476;2022-10-28T16:54:42;14.21;49.99
67942;SHT31;54731;42.600;23.476;2022-10-28T16:57:08;14.18;50.01
67942;SHT31;54731;42.600;23.476;2022-10-28T16:59:33;14.16;51.63
67942;SHT31;54731;42.600;23.476;2022-10-28T17:01:58;14.18;50.36
67942;SHT31;54731;42.600;23.476;2022-10-28T17:04:24;14.13;50.46
67942;SHT31;54731;42.600;23.476;2022-10-28T17:06:50;14.07;50.92
67942;SHT31;54731;42.600;23.476;2022-10-28T17:09:15;13.97;50.84
67942;SHT31;54731;42.600;23.476;2022-10-28T17:11:40;13.96;50.89
67942;SHT31;54731;42.600;23.476;2022-10-28T17:14:06;13.87;51.51
67942;SHT31;54731;42.600;23.476;2022-10-28T17:16:31;13.86;51.52
67942;SHT31;54731;42.600;23.476;2022-10-28T17:18:57;13.77;51.82
67942;SHT31;54731;42.600;23.476;2022-10-28T17:21:22;13.69;51.87
67942;SHT31;54731;42.600;23.476;2022-10-28T17:23:47;13.65;51.86
67942;SHT31;54731;42.600;23.476;2022-10-28T17:26:13;13.60;52.43
67942;SHT31;54731;42.600;23.476;2022-10-28T17:28:38;13.65;52.31
67942;SHT31;54731;42.600;23.476;2022-10-28T17:31:05;13.60;52.61
67942;SHT31;54731;42.600;23.476;2022-10-28T17:33:31;13.58;52.69
67942;SHT31;54731;42.600;23.476;2022-10-28T17:36:04;13.59;52.57
67942;SHT31;54731;42.600;23.476;2022-10-28T17:38:30;13.53;52.75
67942;SHT31;54731;42.600;23.476;2022-10-28T17:40:56;13.53;52.91
67942;SHT31;54731;42.600;23.476;2022-10-28T17:43:22;13.49;53.12
67942;SHT31;54731;42.600;23.476;2022-10-28T17:45:48;13.43;53.31
67942;SHT31;54731;42.600;23.476;2022-10-28T17:48:13;13.36;53.78
67942;SHT31;54731;42.600;23.476;2022-10-28T17:50:38;13.34;53.93
67942;SHT31;54731;42.600;23.476;2022-10-28T17:53:04;13.23;54.33
67942;SHT31;54731;42.600;23.476;2022-10-28T17:55:29;13.16;54.73
67942;SHT31;54731;42.600;23.476;2022-10-28T17:57:56;13.15;54.95
67942;SHT31;54731;42.600;23.476;2022-10-28T18:00:21;13.19;58.52
67942;SHT31;54731;42.600;23.476;2022-10-28T18:02:47;13.19;55.13
67942;SHT31;54731;42.600;23.476;2022-10-28T18:05:12;13.15;55.47
67942;SHT31;54731;42.600;23.476;2022-10-28T18:07:37;13.12;55.51
67942;SHT31;54731;42.600;23.476;2022-10-28T18:10:03;13.16;55.52
67942;SHT31;54731;42.600;23.476;2022-10-28T18:12:28;13.15;55.49
67942;SHT31;54731;42.600;23.476;2022-10-28T18:14:53;13.08;55.85
67942;SHT31;54731;42.600;23.476;2022-10-28T18:17:19;12.98;56.28
67942;SHT31;54731;42.600;23.476;2022-10-28T18:19:44;12.98;56.28
67942;SHT31;54731;42.600;23.476;2022-10-28T18:22:09;12.98;56.22
67942;SHT31;54731;42.600;23.476;2022-10-28T18:24:35;12.87;56.87
67942;SHT31;54731;42.600;23.476;2022-10-28T18:27:00;12.94;56.65
67942;SHT31;54731;42.600;23.476;2022-10-28T18:29:25;12.89;56.94
67942;SHT31;54731;42.600;23.476;2022-10-28T18:31:50;12.84;57.15
67942;SHT31;54731;42.600;23.476;2022-10-28T18:34:16;12.77;57.54